»·PEaware :: N261AB KRNO-KLAX

N261AB :: KRNO-KLAX

FLIGHT INFORMATION

Flight Status: Arrived
Operator: Privately registered:
United States
More flights under this callsign
Pilot: Brian K. (18535)
Aircraft: Unknown
(EVIC)
More flights by this aircraft type
Origin: KRNO Reno/Tahoe Intl
United States
Destination: KLAX Los Angeles Intl
United States
More flights between these airports :: More routes between these airports
Route: ZEFFR6 DARBI FRA J7 REBRG IRNMN2
File this flight plan on PilotEdge
Remarks:
Altitude:
(Current/Filed)
27,000ft
Speed:
(Current/Filed)
300kts
Departed: 16-Nov-18 01:28 PM
Arrived: 16-Nov-18 02:55 PM
Distance/Time
Traveled:
340nm/1:26
Distance/Time
To Go:
Arrived

Flight Plot

Page will automatically refresh every two minutes.

Flight plan parsing failed; only flown route is shown


Map Options




Map Legend


Flown Route
Filed Route
Departure Airport
Arrival Airport
Navaid (VOR, NDB)
Fix

Horizontal Profiles

Position Reports

Time Latitude Longitude Heading Altitude Ground
Speed
16-Nov-18 13:11 39.501129 -119.764424 110 4419ft 0kts
16-Nov-18 13:12 39.501129 -119.764424 110 4419ft 0kts
16-Nov-18 13:13 39.501129 -119.764424 110 4419ft 0kts
16-Nov-18 13:14 39.501129 -119.764424 110 4419ft 0kts
16-Nov-18 13:15 39.501129 -119.764424 110 4419ft 0kts
16-Nov-18 13:16 39.501129 -119.764424 110 4419ft 0kts
16-Nov-18 13:17 39.501129 -119.764424 110 4419ft 0kts
16-Nov-18 13:18 39.501129 -119.764424 110 4419ft 0kts
16-Nov-18 13:19 39.501129 -119.764424 110 4419ft 0kts
16-Nov-18 13:20 39.501129 -119.764424 110 4419ft 0kts
16-Nov-18 13:21 39.501106 -119.764410 164 4419ft 0kts
16-Nov-18 13:22 39.500937 -119.764638 264 4419ft 2kts
16-Nov-18 13:23 39.500927 -119.764835 268 4419ft 0kts
16-Nov-18 13:24 39.501106 -119.765583 291 4419ft 5kts
16-Nov-18 13:25 39.503373 -119.765796 359 4419ft 11kts
16-Nov-18 13:26 39.507024 -119.765779 359 4419ft 14kts
16-Nov-18 13:27 39.510477 -119.765302 47 4419ft 9kts
16-Nov-18 13:28 39.512598 -119.765154 0 4419ft 7kts
16-Nov-18 13:29 39.513723 -119.765588 270 4419ft 0kts
16-Nov-18 13:30 39.513712 -119.766231 267 4419ft 7kts
16-Nov-18 13:31 39.498088 -119.767103 185 4736ft 117kts
16-Nov-18 13:32 39.454996 -119.768794 180 6434ft 183kts
16-Nov-18 13:33 39.405161 -119.769444 179 9191ft 185kts
16-Nov-18 13:34 39.353082 -119.769645 179 11676ft 192kts
16-Nov-18 13:35 39.298816 -119.768879 177 13966ft 201kts
16-Nov-18 13:36 39.241863 -119.766792 177 16100ft 210kts
16-Nov-18 13:37 39.181085 -119.764435 179 17398ft 234kts
16-Nov-18 13:38 39.116265 -119.762036 179 18590ft 235kts
16-Nov-18 13:39 39.050474 -119.759565 179 19627ft 239kts
16-Nov-18 13:40 38.983746 -119.757022 180 20623ft 242kts
16-Nov-18 13:41 38.916396 -119.754483 182 21604ft 243kts
16-Nov-18 13:42 38.849798 -119.752021 182 22358ft 250kts
16-Nov-18 13:43 38.779841 -119.749411 183 23132ft 253kts
16-Nov-18 13:44 38.709018 -119.746771 183 23844ft 257kts
16-Nov-18 13:45 38.637079 -119.744094 183 24489ft 261kts
16-Nov-18 13:46 38.563885 -119.741373 183 25077ft 265kts
16-Nov-18 13:47 38.489895 -119.738626 183 25636ft 268kts
16-Nov-18 13:48 38.415262 -119.735862 184 26159ft 271kts
16-Nov-18 13:49 38.339725 -119.733070 184 26643ft 273kts
16-Nov-18 13:50 38.263346 -119.727314 180 26949ft 282kts
16-Nov-18 13:51 38.183756 -119.718228 180 26948ft 291kts
16-Nov-18 13:52 38.102716 -119.708889 180 26947ft 296kts
16-Nov-18 13:53 38.034054 -119.700987 180 26947ft 299kts
16-Nov-18 13:54 37.950923 -119.691439 180 26947ft 302kts
16-Nov-18 13:55 37.853968 -119.680335 180 26948ft 304kts
16-Nov-18 13:56 37.784386 -119.672382 180 26947ft 304kts
16-Nov-18 13:57 37.685973 -119.661159 180 26944ft 306kts
16-Nov-18 13:58 37.601148 -119.651509 180 26943ft 306kts
16-Nov-18 13:59 37.530700 -119.643513 180 26927ft 307kts
16-Nov-18 14:00 37.445444 -119.633856 180 26900ft 309kts
16-Nov-18 14:01 37.359915 -119.624188 180 26893ft 309kts
16-Nov-18 14:02 37.274809 -119.614591 180 26893ft 309kts
16-Nov-18 14:03 37.189306 -119.604972 180 26893ft 309kts
16-Nov-18 14:04 37.103834 -119.595661 183 26890ft 307kts
16-Nov-18 14:05 37.019888 -119.596928 185 27076ft 301kts
16-Nov-18 14:06 36.935646 -119.598385 185 27077ft 304kts
16-Nov-18 14:07 36.856272 -119.599759 185 27076ft 307kts
16-Nov-18 14:08 36.771778 -119.601218 185 27075ft 308kts
16-Nov-18 14:09 36.685982 -119.602697 185 27070ft 309kts
16-Nov-18 14:10 36.600024 -119.604175 185 27068ft 310kts
16-Nov-18 14:11 36.513974 -119.605652 185 27073ft 310kts
16-Nov-18 14:12 36.427936 -119.607126 185 27076ft 310kts
16-Nov-18 14:13 36.341552 -119.608605 185 27049ft 312kts
16-Nov-18 14:14 36.255409 -119.610072 185 27049ft 311kts
16-Nov-18 14:15 36.168862 -119.611544 185 27049ft 311kts
16-Nov-18 14:16 36.083250 -119.612998 185 27049ft 311kts
16-Nov-18 14:17 35.996926 -119.614466 185 27049ft 311kts
16-Nov-18 14:18 35.915095 -119.639982 201 27049ft 304kts
16-Nov-18 14:19 35.838128 -119.668606 201 27049ft 303kts
16-Nov-18 14:20 35.757552 -119.698785 201 27052ft 303kts
16-Nov-18 14:21 35.677175 -119.728840 201 27052ft 303kts
16-Nov-18 14:22 35.594252 -119.750125 196 27049ft 306kts
16-Nov-18 14:23 35.511083 -119.770510 196 27047ft 306kts
16-Nov-18 14:24 35.427579 -119.790744 196 27045ft 306kts
16-Nov-18 14:25 35.344154 -119.810904 196 27043ft 306kts
16-Nov-18 14:26 35.261892 -119.794431 151 27006ft 326kts
16-Nov-18 14:27 35.186574 -119.728339 146 26630ft 339kts
16-Nov-18 14:28 35.113014 -119.659969 145 26261ft 345kts
16-Nov-18 14:29 35.039807 -119.591856 145 26039ft 343kts
16-Nov-18 14:30 34.966568 -119.523878 145 26037ft 338kts
16-Nov-18 14:31 34.895488 -119.458681 146 25984ft 336kts
16-Nov-18 14:32 34.833859 -119.403433 146 25600ft 342kts
16-Nov-18 14:33 34.762855 -119.339968 146 25041ft 341kts
16-Nov-18 14:34 34.701194 -119.285817 146 24404ft 343kts
16-Nov-18 14:35 34.624539 -119.219145 147 23303ft 337kts
16-Nov-18 14:36 34.554449 -119.158384 146 22201ft 323kts
16-Nov-18 14:37 34.483554 -119.095703 145 20818ft 315kts
16-Nov-18 14:38 34.413145 -119.033997 146 19253ft 311kts
16-Nov-18 14:39 34.343292 -118.973313 144 17558ft 308kts
16-Nov-18 14:40 34.275390 -118.911898 143 15869ft 304kts
16-Nov-18 14:41 34.209071 -118.851201 142 14087ft 298kts
16-Nov-18 14:42 34.148441 -118.792420 137 12256ft 284kts
16-Nov-18 14:43 34.090956 -118.730121 137 10363ft 275kts
16-Nov-18 14:44 34.037345 -118.667595 111 8945ft 252kts
16-Nov-18 14:45 34.023494 -118.588457 96 8191ft 242kts
16-Nov-18 14:46 34.015216 -118.509109 95 7110ft 240kts
16-Nov-18 14:47 33.993216 -118.435852 111 6042ft 234kts
16-Nov-18 14:48 33.970875 -118.370344 111 5885ft 199kts
16-Nov-18 14:49 33.951004 -118.312078 112 4928ft 206kts
16-Nov-18 14:50 33.929333 -118.247919 111 3740ft 208kts
16-Nov-18 14:51 33.934649 -118.192476 5 2761ft 188kts
16-Nov-18 14:52 33.963832 -118.227237 297 2474ft 127kts
16-Nov-18 14:53 33.955843 -118.264373 248 2098ft 124kts
16-Nov-18 14:54 33.945989 -118.300204 258 1609ft 95kts
16-Nov-18 14:55 33.942223 -118.331985 264 916ft 97kts
16-Nov-18 14:56 33.939373 -118.363445 261 549ft 92kts
16-Nov-18 14:57 33.936411 -118.391584 263 129ft 66kts
16-Nov-18 14:58 33.934597 -118.401777 168 129ft 5kts
16-Nov-18 14:59 33.934431 -118.401682 142 129ft 4kts
16-Nov-18 15:00 33.934387 -118.398226 133 129ft 8kts
16-Nov-18 15:01 33.933309 -118.398705 259 129ft 0kts
16-Nov-18 15:02 33.933309 -118.398705 259 129ft 0kts

Navigation Log

Ident Type
Flight plan parsing failed, navigation log unavailable